Flight Track Log - Related Links

Times and Time Zones

All times are in EDT time to prevent confusion due to time zone crossing. See the OPT732 flight status page for this flight to view local times or setup timezone preferences in your user account.


Time Position Orientation Groundspeed Altitude Reporting Facility
EDT Latitude Longitude Course Direction KTS MPH feet Rate Location/Type
Thu 03:27:26 PM 39.8897 -84.2242 256° West 167 192 1,800  Level Indianapolis Center
Thu 03:27:57 PM 39.8825 -84.2611 256° West 194 223 3,600 3,419 Climbing Indianapolis Center
Thu 03:28:52 PM 39.8786 -84.3369 266° West 247 284 6,700 2,833 Climbing Indianapolis Center
Thu 03:29:09 PM 39.8767 -84.3644 265° West 244 281 7,000 2,203 Climbing Indianapolis Center
Thu 03:30:11 PM 39.8878 -84.4642 278° West 281 323 9,600 2,516 Climbing Indianapolis Center
Thu 03:31:13 PM 39.9714 -84.5128 336° Northwest 322 371 12,200 2,112 Climbing Indianapolis Center
Thu 03:32:16 PM 40.0594 -84.5594 338° Northwest 333 383 14,000 2,016 Climbing Indianapolis Center
Thu 03:33:18 PM 40.1619 -84.6131 338° Northwest 373 429 16,400 1,887 Climbing Indianapolis Center
Thu 03:34:20 PM 40.2603 -84.6756 334° Northwest 392 451 17,900 726 Climbing Indianapolis Center
Thu 03:35:22 PM 40.3497 -84.7708 321° Northwest 410 472 17,900  Level Indianapolis Center
Thu 03:36:24 PM 40.4447 -84.8689 322° Northwest 425 489 17,900  Level Indianapolis Center
Thu 03:37:26 PM 40.5511 -84.9811 321° Northwest 434 499 17,900 48 Level Indianapolis Center
Thu 03:38:28 PM 40.6444 -85.0800 321° Northwest 435 501 18,000 73 Climbing Indianapolis Center
Thu 03:38:48 PM 40.6844 -85.1222 321° Northwest 434 499 18,000  Level Chicago Center
Thu 03:39:50 PM 40.7797 -85.2217 322° Northwest 435 501 18,000  Level Chicago Center
Thu 03:40:52 PM 40.8739 -85.3222 321° Northwest 436 502 18,000  Level Chicago Center
Thu 03:41:55 PM 40.9578 -85.4317 315° West 429 494 18,000  Level Chicago Center
Thu 03:42:57 PM 41.0392 -85.5436 314° West 422 486 18,000 -48 Level Chicago Center
Thu 03:43:59 PM 41.1208 -85.6389 319° Northwest 398 458 17,900 -1,016 Descending Chicago Center
Thu 03:45:01 PM 41.1994 -85.7283 319° Northwest 375 432 15,900 -2,177 Descending Chicago Center
Thu 03:46:03 PM 41.2994 -85.8436 319° Northwest 392 451 13,400 -2,226 Descending Chicago Center
Thu 03:47:05 PM 41.3839 -85.9417 319° Northwest 398 458 11,300 -1,306 Descending Chicago Center
Thu 03:48:07 PM 41.4675 -86.0225 324° Northwest 366 421 10,700 -774 Descending Chicago Center
Thu 03:49:09 PM 41.5403 -86.0831 328° Northwest 312 359 9,700 -1,306 Descending Chicago Center
Thu 03:50:11 PM 41.6128 -86.1225 338° Northwest 285 328 8,000 -1,694 Descending Chicago Center
Thu 03:51:13 PM 41.6881 -86.1636 338° Northwest 290 334 6,200 -1,742 Descending Chicago Center
Thu 03:52:15 PM 41.7581 -86.2256 327° Northwest 255 293 4,400 -1,488 Descending Chicago Center
Thu 03:53:18 PM 41.7725 -86.3025 284° West 226 260 3,100 -1,248 Descending Chicago Center
Thu 03:54:20 PM 41.7328 -86.3189 197° South 192 221 1,800 -1,258 Descending Chicago Center
Thu 03:56:00 PM 41.7082 -86.3173 180° South  Level Estimated

Login

Don't have an account? Register now (free) for customized features, flight alerts, and more!